Edinboro, Pennsylvania
Current Conditions -  °F | °C
As of 5:51 AM on Monday 22 Dec 2014 (Local Time) from KERI Reporting Station
Clear Clear  
Wind Chill: 18°   Ceiling: Unl
Heat Index: 27°   Visibility: 10mi
Dew Point: 19°   Wind: 9mph
Humidity: 72%   Direction: 150°SSE
Pressure: 30.14"   Gusts: NA
Location:  41.88°N, 80.13°W
Report Text: KERI 221051Z 15008KT 10SM CLR M03/M07 A3014 RMK AO2 SLP217 T10281072
Loading
Personal Weather Stations






























Interactive Weather Map New forecast layout! Learn more

10-Day Weather Forecast

Advertisements
Track Severe Weather on mobile